sensor_id;sensor_type;location;lat;lon;timestamp;temperature;humidity
38866;DHT22;62686;48.984;8.394;2024-03-06T00:01:24;4.20;99.90
38866;DHT22;62686;48.984;8.394;2024-03-06T00:03:53;4.20;99.90
38866;DHT22;62686;48.984;8.394;2024-03-06T00:06:22;4.20;99.90
38866;DHT22;62686;48.984;8.394;2024-03-06T00:08:51;4.20;99.90
38866;DHT22;62686;48.984;8.394;2024-03-06T00:11:19;4.30;99.90
38866;DHT22;62686;48.984;8.394;2024-03-06T00:13:48;4.30;99.90
38866;DHT22;62686;48.984;8.394;2024-03-06T00:16:16;4.30;99.90
38866;DHT22;62686;48.984;8.394;2024-03-06T00:18:45;4.40;99.90
38866;DHT22;62686;48.984;8.394;2024-03-06T00:21:15;4.40;99.90
38866;DHT22;62686;48.984;8.394;2024-03-06T00:23:44;4.40;99.90
38866;DHT22;62686;48.984;8.394;2024-03-06T00:26:13;4.40;99.90
38866;DHT22;62686;48.984;8.394;2024-03-06T00:28:41;4.50;99.90
38866;DHT22;62686;48.984;8.394;2024-03-06T00:31:10;4.50;99.90
38866;DHT22;62686;48.984;8.394;2024-03-06T00:33:40;4.50;99.90
38866;DHT22;62686;48.984;8.394;2024-03-06T00:36:08;4.50;99.90
38866;DHT22;62686;48.984;8.394;2024-03-06T00:38:38;4.60;99.90
38866;DHT22;62686;48.984;8.394;2024-03-06T00:41:07;4.60;99.90
38866;DHT22;62686;48.984;8.394;2024-03-06T00:43:35;4.60;99.90
38866;DHT22;62686;48.984;8.394;2024-03-06T00:46:04;4.70;99.90
38866;DHT22;62686;48.984;8.394;2024-03-06T00:48:32;4.70;99.90
38866;DHT22;62686;48.984;8.394;2024-03-06T00:51:02;4.70;99.90
38866;DHT22;62686;48.984;8.394;2024-03-06T00:53:30;4.70;99.90
38866;DHT22;62686;48.984;8.394;2024-03-06T00:56:00;4.70;99.90
38866;DHT22;62686;48.984;8.394;2024-03-06T00:58:29;4.70;99.90
38866;DHT22;62686;48.984;8.394;2024-03-06T01:00:57;4.70;99.90
38866;DHT22;62686;48.984;8.394;2024-03-06T01:03:26;4.70;99.90
38866;DHT22;62686;48.984;8.394;2024-03-06T01:05:54;4.70;99.90
38866;DHT22;62686;48.984;8.394;2024-03-06T01:08:23;4.70;99.90
38866;DHT22;62686;48.984;8.394;2024-03-06T01:10:52;4.70;99.90
38866;DHT22;62686;48.984;8.394;2024-03-06T01:13:22;4.70;99.90
38866;DHT22;62686;48.984;8.394;2024-03-06T01:15:51;4.70;99.90
38866;DHT22;62686;48.984;8.394;2024-03-06T01:18:20;4.70;99.90
38866;DHT22;62686;48.984;8.394;2024-03-06T01:20:48;4.80;99.90
38866;DHT22;62686;48.984;8.394;2024-03-06T01:23:17;4.80;99.90
38866;DHT22;62686;48.984;8.394;2024-03-06T01:25:45;4.80;99.90
38866;DHT22;62686;48.984;8.394;2024-03-06T01:28:13;4.80;99.90
38866;DHT22;62686;48.984;8.394;2024-03-06T03:53:02;4.30;99.90
38866;DHT22;62686;48.984;8.394;2024-03-06T05:00:13;4.20;99.90
38866;DHT22;62686;48.984;8.394;2024-03-06T05:02:42;4.20;99.90
38866;DHT22;62686;48.984;8.394;2024-03-06T05:05:28;4.20;99.90
38866;DHT22;62686;48.984;8.394;2024-03-06T05:08:13;4.20;99.90
38866;DHT22;62686;48.984;8.394;2024-03-06T05:11:00;4.20;99.90
38866;DHT22;62686;48.984;8.394;2024-03-06T05:13:46;4.30;99.90
38866;DHT22;62686;48.984;8.394;2024-03-06T05:16:34;4.30;99.90
38866;DHT22;62686;48.984;8.394;2024-03-06T05:19:20;4.30;99.90
38866;DHT22;62686;48.984;8.394;2024-03-06T05:22:06;4.40;99.90
38866;DHT22;62686;48.984;8.394;2024-03-06T05:24:51;4.40;99.90
38866;DHT22;62686;48.984;8.394;2024-03-06T05:27:38;4.50;99.90
38866;DHT22;62686;48.984;8.394;2024-03-06T05:30:23;4.50;99.90
38866;DHT22;62686;48.984;8.394;2024-03-06T05:33:11;4.50;99.90
38866;DHT22;62686;48.984;8.394;2024-03-06T05:35:57;4.50;99.90
38866;DHT22;62686;48.984;8.394;2024-03-06T05:38:42;4.60;99.90
38866;DHT22;62686;48.984;8.394;2024-03-06T05:41:28;4.70;99.90
38866;DHT22;62686;48.984;8.394;2024-03-06T05:44:14;4.70;99.90
38866;DHT22;62686;48.984;8.394;2024-03-06T05:47:01;4.70;99.90
38866;DHT22;62686;48.984;8.394;2024-03-06T05:49:48;4.80;99.90
38866;DHT22;62686;48.984;8.394;2024-03-06T05:52:35;4.90;99.90
38866;DHT22;62686;48.984;8.394;2024-03-06T05:55:20;5.00;99.90
38866;DHT22;62686;48.984;8.394;2024-03-06T05:58:06;5.10;99.90
38866;DHT22;62686;48.984;8.394;2024-03-06T06:00:34;5.10;99.90
38866;DHT22;62686;48.984;8.394;2024-03-06T06:03:03;5.20;99.90
38866;DHT22;62686;48.984;8.394;2024-03-06T06:05:33;5.20;99.90
38866;DHT22;62686;48.984;8.394;2024-03-06T06:08:04;5.20;99.90
38866;DHT22;62686;48.984;8.394;2024-03-06T06:10:33;5.30;99.90
38866;DHT22;62686;48.984;8.394;2024-03-06T06:27:49;5.50;99.90
38866;DHT22;62686;48.984;8.394;2024-03-06T06:38:53;5.60;99.90
38866;DHT22;62686;48.984;8.394;2024-03-06T06:41:22;5.70;99.90
38866;DHT22;62686;48.984;8.394;2024-03-06T06:43:52;5.70;99.90
38866;DHT22;62686;48.984;8.394;2024-03-06T06:46:20;5.80;99.90
38866;DHT22;62686;48.984;8.394;2024-03-06T06:48:49;5.80;99.90
38866;DHT22;62686;48.984;8.394;2024-03-06T06:51:17;5.80;99.90
38866;DHT22;62686;48.984;8.394;2024-03-06T07:01:35;6.00;99.90
38866;DHT22;62686;48.984;8.394;2024-03-06T07:04:04;6.10;99.90
38866;DHT22;62686;48.984;8.394;2024-03-06T07:06:32;6.10;99.90
38866;DHT22;62686;48.984;8.394;2024-03-06T07:21:09;6.30;99.90
38866;DHT22;62686;48.984;8.394;2024-03-06T07:23:37;6.30;99.90
38866;DHT22;62686;48.984;8.394;2024-03-06T07:26:06;6.30;99.90
38866;DHT22;62686;48.984;8.394;2024-03-06T07:28:34;6.40;99.90
38866;DHT22;62686;48.984;8.394;2024-03-06T07:31:04;6.30;99.90
38866;DHT22;62686;48.984;8.394;2024-03-06T07:33:33;6.40;99.90
38866;DHT22;62686;48.984;8.394;2024-03-06T07:36:06;6.50;99.90
38866;DHT22;62686;48.984;8.394;2024-03-06T07:38:35;6.60;99.90
38866;DHT22;62686;48.984;8.394;2024-03-06T07:41:03;6.70;99.90
38866;DHT22;62686;48.984;8.394;2024-03-06T07:43:33;6.70;99.90
38866;DHT22;62686;48.984;8.394;2024-03-06T07:46:01;6.80;99.90
38866;DHT22;62686;48.984;8.394;2024-03-06T07:48:30;6.80;99.90
38866;DHT22;62686;48.984;8.394;2024-03-06T07:50:58;7.00;99.90
38866;DHT22;62686;48.984;8.394;2024-03-06T07:53:28;7.10;99.90
38866;DHT22;62686;48.984;8.394;2024-03-06T07:56:16;7.20;99.90
38866;DHT22;62686;48.984;8.394;2024-03-06T07:58:45;7.20;99.90
38866;DHT22;62686;48.984;8.394;2024-03-06T08:01:13;7.30;99.90
38866;DHT22;62686;48.984;8.394;2024-03-06T08:03:42;7.40;99.90
38866;DHT22;62686;48.984;8.394;2024-03-06T08:06:11;7.40;99.90
38866;DHT22;62686;48.984;8.394;2024-03-06T08:08:42;7.40;99.90
38866;DHT22;62686;48.984;8.394;2024-03-06T08:11:12;7.40;99.90
38866;DHT22;62686;48.984;8.394;2024-03-06T08:13:43;7.60;99.90
38866;DHT22;62686;48.984;8.394;2024-03-06T08:16:12;7.60;99.90
38866;DHT22;62686;48.984;8.394;2024-03-06T08:18:41;7.70;99.90
38866;DHT22;62686;48.984;8.394;2024-03-06T08:21:09;7.80;99.90
38866;DHT22;62686;48.984;8.394;2024-03-06T08:23:38;7.90;99.90
38866;DHT22;62686;48.984;8.394;2024-03-06T08:26:07;8.00;99.90
38866;DHT22;62686;48.984;8.394;2024-03-06T08:28:35;8.10;99.90
38866;DHT22;62686;48.984;8.394;2024-03-06T08:31:05;8.10;99.90
38866;DHT22;62686;48.984;8.394;2024-03-06T08:33:35;8.10;99.90
38866;DHT22;62686;48.984;8.394;2024-03-06T08:36:04;8.10;99.90
38866;DHT22;62686;48.984;8.394;2024-03-06T08:38:33;8.10;99.90
38866;DHT22;62686;48.984;8.394;2024-03-06T08:41:02;8.00;99.90
38866;DHT22;62686;48.984;8.394;2024-03-06T08:43:32;8.00;99.90
38866;DHT22;62686;48.984;8.394;2024-03-06T08:46:00;8.10;99.90
38866;DHT22;62686;48.984;8.394;2024-03-06T08:48:30;8.10;99.90
38866;DHT22;62686;48.984;8.394;2024-03-06T08:50:58;8.20;99.90
38866;DHT22;62686;48.984;8.394;2024-03-06T08:53:27;8.30;99.90
38866;DHT22;62686;48.984;8.394;2024-03-06T08:55:55;8.40;99.90
38866;DHT22;62686;48.984;8.394;2024-03-06T08:58:24;8.40;99.90
38866;DHT22;62686;48.984;8.394;2024-03-06T09:00:52;8.40;99.90
38866;DHT22;62686;48.984;8.394;2024-03-06T09:03:20;8.60;99.90
38866;DHT22;62686;48.984;8.394;2024-03-06T09:05:51;8.70;99.90
38866;DHT22;62686;48.984;8.394;2024-03-06T09:08:19;8.70;99.90
38866;DHT22;62686;48.984;8.394;2024-03-06T09:10:48;8.90;99.90
38866;DHT22;62686;48.984;8.394;2024-03-06T09:13:16;9.10;99.90
38866;DHT22;62686;48.984;8.394;2024-03-06T09:15:44;9.30;99.90
38866;DHT22;62686;48.984;8.394;2024-03-06T09:18:13;9.40;99.90
38866;DHT22;62686;48.984;8.394;2024-03-06T09:20:43;9.50;99.90
38866;DHT22;62686;48.984;8.394;2024-03-06T09:23:13;9.50;99.90
38866;DHT22;62686;48.984;8.394;2024-03-06T09:25:42;9.50;99.90
38866;DHT22;62686;48.984;8.394;2024-03-06T09:28:10;9.50;99.90
38866;DHT22;62686;48.984;8.394;2024-03-06T09:30:39;9.50;99.90
38866;DHT22;62686;48.984;8.394;2024-03-06T09:33:08;9.30;99.90
38866;DHT22;62686;48.984;8.394;2024-03-06T09:35:37;9.30;99.90
38866;DHT22;62686;48.984;8.394;2024-03-06T09:38:05;9.30;99.90
38866;DHT22;62686;48.984;8.394;2024-03-06T09:40:35;9.60;99.90
38866;DHT22;62686;48.984;8.394;2024-03-06T09:43:04;9.50;99.90
38866;DHT22;62686;48.984;8.394;2024-03-06T09:45:33;9.50;99.90
38866;DHT22;62686;48.984;8.394;2024-03-06T09:48:02;9.70;99.90
38866;DHT22;62686;48.984;8.394;2024-03-06T09:50:32;9.80;99.90
38866;DHT22;62686;48.984;8.394;2024-03-06T09:53:06;10.00;99.90
38866;DHT22;62686;48.984;8.394;2024-03-06T09:55:38;10.20;99.90
38866;DHT22;62686;48.984;8.394;2024-03-06T09:58:07;10.10;99.90
38866;DHT22;62686;48.984;8.394;2024-03-06T10:00:36;10.00;99.90
38866;DHT22;62686;48.984;8.394;2024-03-06T10:03:05;9.80;99.90
38866;DHT22;62686;48.984;8.394;2024-03-06T10:05:35;9.40;99.90
38866;DHT22;62686;48.984;8.394;2024-03-06T10:08:04;9.10;99.90
38866;DHT22;62686;48.984;8.394;2024-03-06T10:10:33;9.10;99.90
38866;DHT22;62686;48.984;8.394;2024-03-06T10:13:04;9.10;99.90
38866;DHT22;62686;48.984;8.394;2024-03-06T10:15:34;8.90;99.90
38866;DHT22;62686;48.984;8.394;2024-03-06T10:18:13;8.80;99.90
38866;DHT22;62686;48.984;8.394;2024-03-06T10:20:45;9.00;99.90
38866;DHT22;62686;48.984;8.394;2024-03-06T10:23:15;9.10;99.90
38866;DHT22;62686;48.984;8.394;2024-03-06T10:25:46;9.40;99.90
38866;DHT22;62686;48.984;8.394;2024-03-06T10:28:20;9.50;99.90
38866;DHT22;62686;48.984;8.394;2024-03-06T10:30:51;9.70;99.90
38866;DHT22;62686;48.984;8.394;2024-03-06T10:35:55;10.00;99.90
38866;DHT22;62686;48.984;8.394;2024-03-06T10:41:08;10.50;99.90
38866;DHT22;62686;48.984;8.394;2024-03-06T10:46:38;10.50;99.90
38866;DHT22;62686;48.984;8.394;2024-03-06T10:55:11;10.20;99.90
38866;DHT22;62686;48.984;8.394;2024-03-06T12:17:00;10.50;99.90
38866;DHT22;62686;48.984;8.394;2024-03-06T12:19:32;10.60;99.90
38866;DHT22;62686;48.984;8.394;2024-03-06T12:22:01;10.40;99.90
38866;DHT22;62686;48.984;8.394;2024-03-06T12:24:31;10.50;99.90
38866;DHT22;62686;48.984;8.394;2024-03-06T12:27:01;10.70;99.90
38866;DHT22;62686;48.984;8.394;2024-03-06T12:29:31;10.60;99.90
38866;DHT22;62686;48.984;8.394;2024-03-06T12:32:02;10.60;99.90
38866;DHT22;62686;48.984;8.394;2024-03-06T12:34:32;10.60;99.90
38866;DHT22;62686;48.984;8.394;2024-03-06T12:37:08;10.50;99.90
38866;DHT22;62686;48.984;8.394;2024-03-06T12:39:37;10.60;99.90
38866;DHT22;62686;48.984;8.394;2024-03-06T12:42:07;10.70;99.90
38866;DHT22;62686;48.984;8.394;2024-03-06T12:44:36;11.00;99.90
38866;DHT22;62686;48.984;8.394;2024-03-06T12:47:08;11.00;99.90
38866;DHT22;62686;48.984;8.394;2024-03-06T12:49:36;11.30;99.90
38866;DHT22;62686;48.984;8.394;2024-03-06T12:52:05;11.10;99.90
38866;DHT22;62686;48.984;8.394;2024-03-06T12:54:35;11.40;99.90
38866;DHT22;62686;48.984;8.394;2024-03-06T12:57:04;11.50;99.90
38866;DHT22;62686;48.984;8.394;2024-03-06T12:59:36;11.70;99.90
38866;DHT22;62686;48.984;8.394;2024-03-06T13:02:06;11.70;99.90
38866;DHT22;62686;48.984;8.394;2024-03-06T13:04:35;11.90;99.90
38866;DHT22;62686;48.984;8.394;2024-03-06T13:07:04;11.60;99.90
38866;DHT22;62686;48.984;8.394;2024-03-06T13:14:48;11.50;99.90
38866;DHT22;62686;48.984;8.394;2024-03-06T13:17:18;11.80;99.90
38866;DHT22;62686;48.984;8.394;2024-03-06T13:19:46;11.90;99.90
38866;DHT22;62686;48.984;8.394;2024-03-06T13:22:15;11.70;99.90
38866;DHT22;62686;48.984;8.394;2024-03-06T13:24:43;11.90;99.90
38866;DHT22;62686;48.984;8.394;2024-03-06T13:27:12;12.20;99.90
38866;DHT22;62686;48.984;8.394;2024-03-06T13:29:41;12.40;99.90
38866;DHT22;62686;48.984;8.394;2024-03-06T13:32:09;12.40;99.90
38866;DHT22;62686;48.984;8.394;2024-03-06T13:34:39;12.20;99.90
38866;DHT22;62686;48.984;8.394;2024-03-06T13:37:08;11.90;99.90
38866;DHT22;62686;48.984;8.394;2024-03-06T13:39:37;11.90;99.90
38866;DHT22;62686;48.984;8.394;2024-03-06T13:42:06;11.80;99.90
38866;DHT22;62686;48.984;8.394;2024-03-06T13:44:36;11.80;99.90
38866;DHT22;62686;48.984;8.394;2024-03-06T13:47:04;11.70;99.90
38866;DHT22;62686;48.984;8.394;2024-03-06T13:49:37;11.50;99.90
38866;DHT22;62686;48.984;8.394;2024-03-06T13:52:08;11.30;99.90
38866;DHT22;62686;48.984;8.394;2024-03-06T13:54:40;11.20;99.90
38866;DHT22;62686;48.984;8.394;2024-03-06T13:57:09;11.10;99.90
38866;DHT22;62686;48.984;8.394;2024-03-06T13:59:38;10.70;99.90
38866;DHT22;62686;48.984;8.394;2024-03-06T14:02:07;10.70;99.90
38866;DHT22;62686;48.984;8.394;2024-03-06T14:04:36;10.80;99.90
38866;DHT22;62686;48.984;8.394;2024-03-06T14:07:06;10.70;99.90
38866;DHT22;62686;48.984;8.394;2024-03-06T14:09:34;10.90;99.90
38866;DHT22;62686;48.984;8.394;2024-03-06T14:12:03;10.80;99.90
38866;DHT22;62686;48.984;8.394;2024-03-06T14:14:31;10.80;99.90
38866;DHT22;62686;48.984;8.394;2024-03-06T14:17:00;10.60;99.90
38866;DHT22;62686;48.984;8.394;2024-03-06T14:19:28;10.40;99.90
38866;DHT22;62686;48.984;8.394;2024-03-06T14:21:58;10.20;99.90
38866;DHT22;62686;48.984;8.394;2024-03-06T14:24:45;10.20;99.90
38866;DHT22;62686;48.984;8.394;2024-03-06T14:27:15;10.10;99.90
38866;DHT22;62686;48.984;8.394;2024-03-06T14:29:44;9.90;99.90
38866;DHT22;62686;48.984;8.394;2024-03-06T14:32:13;9.80;99.90
38866;DHT22;62686;48.984;8.394;2024-03-06T14:34:42;9.80;99.90
38866;DHT22;62686;48.984;8.394;2024-03-06T14:37:11;9.80;99.90
38866;DHT22;62686;48.984;8.394;2024-03-06T14:39:39;9.70;99.90
38866;DHT22;62686;48.984;8.394;2024-03-06T14:42:09;9.60;99.90
38866;DHT22;62686;48.984;8.394;2024-03-06T14:44:37;9.40;99.90
38866;DHT22;62686;48.984;8.394;2024-03-06T14:47:06;9.20;99.90
38866;DHT22;62686;48.984;8.394;2024-03-06T14:49:35;9.10;99.90
38866;DHT22;62686;48.984;8.394;2024-03-06T14:52:03;9.00;99.90
38866;DHT22;62686;48.984;8.394;2024-03-06T14:54:33;8.90;99.90
38866;DHT22;62686;48.984;8.394;2024-03-06T14:57:01;8.80;99.90
38866;DHT22;62686;48.984;8.394;2024-03-06T14:59:31;8.70;99.90
38866;DHT22;62686;48.984;8.394;2024-03-06T15:02:00;8.60;99.90
38866;DHT22;62686;48.984;8.394;2024-03-06T15:04:30;8.50;99.90
38866;DHT22;62686;48.984;8.394;2024-03-06T15:06:58;8.50;99.90
38866;DHT22;62686;48.984;8.394;2024-03-06T15:09:27;8.40;99.90
38866;DHT22;62686;48.984;8.394;2024-03-06T15:11:55;8.40;99.90
38866;DHT22;62686;48.984;8.394;2024-03-06T15:14:25;8.30;99.90
38866;DHT22;62686;48.984;8.394;2024-03-06T15:16:55;8.20;99.90
38866;DHT22;62686;48.984;8.394;2024-03-06T15:19:23;8.20;99.90
38866;DHT22;62686;48.984;8.394;2024-03-06T15:21:52;8.20;99.90
38866;DHT22;62686;48.984;8.394;2024-03-06T15:24:20;8.20;99.90
38866;DHT22;62686;48.984;8.394;2024-03-06T15:26:49;8.20;99.90
38866;DHT22;62686;48.984;8.394;2024-03-06T15:29:17;8.10;99.90
38866;DHT22;62686;48.984;8.394;2024-03-06T16:51:40;7.60;99.90
38866;DHT22;62686;48.984;8.394;2024-03-06T19:00:29;6.80;99.90
38866;DHT22;62686;48.984;8.394;2024-03-06T19:02:57;6.80;99.90
38866;DHT22;62686;48.984;8.394;2024-03-06T19:05:39;6.80;99.90
38866;DHT22;62686;48.984;8.394;2024-03-06T19:08:09;6.80;99.90
38866;DHT22;62686;48.984;8.394;2024-03-06T19:10:51;6.80;99.90
38866;DHT22;62686;48.984;8.394;2024-03-06T19:13:23;6.70;99.90
38866;DHT22;62686;48.984;8.394;2024-03-06T19:15:54;6.70;99.90
38866;DHT22;62686;48.984;8.394;2024-03-06T19:18:23;6.70;99.90
38866;DHT22;62686;48.984;8.394;2024-03-06T19:20:52;6.70;99.90
38866;DHT22;62686;48.984;8.394;2024-03-06T19:23:24;6.70;99.90
38866;DHT22;62686;48.984;8.394;2024-03-06T19:25:52;6.70;99.90
38866;DHT22;62686;48.984;8.394;2024-03-06T19:28:21;6.60;99.90
38866;DHT22;62686;48.984;8.394;2024-03-06T19:30:49;6.60;99.90
38866;DHT22;62686;48.984;8.394;2024-03-06T19:33:22;6.60;99.90
38866;DHT22;62686;48.984;8.394;2024-03-06T19:35:50;6.60;99.90
38866;DHT22;62686;48.984;8.394;2024-03-06T19:38:22;6.60;99.90
38866;DHT22;62686;48.984;8.394;2024-03-06T19:40:53;6.60;99.90
38866;DHT22;62686;48.984;8.394;2024-03-06T19:43:22;6.60;99.90
38866;DHT22;62686;48.984;8.394;2024-03-06T19:45:53;6.60;99.90
38866;DHT22;62686;48.984;8.394;2024-03-06T19:48:23;6.60;99.90
38866;DHT22;62686;48.984;8.394;2024-03-06T19:50:51;6.60;99.90
38866;DHT22;62686;48.984;8.394;2024-03-06T19:53:21;6.60;99.90
38866;DHT22;62686;48.984;8.394;2024-03-06T19:55:49;6.60;99.90
38866;DHT22;62686;48.984;8.394;2024-03-06T19:58:18;6.70;99.90
38866;DHT22;62686;48.984;8.394;2024-03-06T20:00:50;6.70;99.90
38866;DHT22;62686;48.984;8.394;2024-03-06T20:03:18;6.70;99.90
38866;DHT22;62686;48.984;8.394;2024-03-06T20:05:49;6.70;99.90
38866;DHT22;62686;48.984;8.394;2024-03-06T20:08:17;6.70;99.90
38866;DHT22;62686;48.984;8.394;2024-03-06T20:35:00;6.30;99.90
38866;DHT22;62686;48.984;8.394;2024-03-06T20:37:30;6.30;99.90
38866;DHT22;62686;48.984;8.394;2024-03-06T20:40:01;6.20;99.90
38866;DHT22;62686;48.984;8.394;2024-03-06T20:42:31;6.20;99.90
38866;DHT22;62686;48.984;8.394;2024-03-06T20:44:59;6.10;99.90
38866;DHT22;62686;48.984;8.394;2024-03-06T20:47:28;6.10;99.90
38866;DHT22;62686;48.984;8.394;2024-03-06T20:49:56;6.10;99.90
38866;DHT22;62686;48.984;8.394;2024-03-06T20:52:26;6.10;99.90
38866;DHT22;62686;48.984;8.394;2024-03-06T20:54:55;6.10;99.90
38866;DHT22;62686;48.984;8.394;2024-03-06T20:57:23;6.10;99.90
38866;DHT22;62686;48.984;8.394;2024-03-06T20:59:52;6.10;99.90
38866;DHT22;62686;48.984;8.394;2024-03-06T21:02:20;6.10;99.90
38866;DHT22;62686;48.984;8.394;2024-03-06T21:04:51;6.20;99.90
38866;DHT22;62686;48.984;8.394;2024-03-06T21:07:21;6.20;99.90
38866;DHT22;62686;48.984;8.394;2024-03-06T21:09:51;6.20;99.90
38866;DHT22;62686;48.984;8.394;2024-03-06T21:12:19;6.20;99.90
38866;DHT22;62686;48.984;8.394;2024-03-06T21:14:49;6.20;99.90
38866;DHT22;62686;48.984;8.394;2024-03-06T21:17:23;6.20;99.90
38866;DHT22;62686;48.984;8.394;2024-03-06T21:19:52;6.20;99.90
38866;DHT22;62686;48.984;8.394;2024-03-06T21:22:21;6.20;99.90
38866;DHT22;62686;48.984;8.394;2024-03-06T21:24:51;6.20;99.90
38866;DHT22;62686;48.984;8.394;2024-03-06T21:27:19;6.20;99.90
38866;DHT22;62686;48.984;8.394;2024-03-06T21:29:48;6.10;99.90
38866;DHT22;62686;48.984;8.394;2024-03-06T21:32:17;6.10;99.90
38866;DHT22;62686;48.984;8.394;2024-03-06T21:34:46;6.10;99.90
38866;DHT22;62686;48.984;8.394;2024-03-06T21:37:15;6.10;99.90
38866;DHT22;62686;48.984;8.394;2024-03-06T21:39:44;6.20;99.90
38866;DHT22;62686;48.984;8.394;2024-03-06T21:42:14;6.20;99.90
38866;DHT22;62686;48.984;8.394;2024-03-06T21:44:42;6.20;99.90
38866;DHT22;62686;48.984;8.394;2024-03-06T21:47:10;6.20;99.90
38866;DHT22;62686;48.984;8.394;2024-03-06T21:49:39;6.20;99.90
38866;DHT22;62686;48.984;8.394;2024-03-06T21:52:07;6.20;99.90
38866;DHT22;62686;48.984;8.394;2024-03-06T21:54:38;6.20;99.90
38866;DHT22;62686;48.984;8.394;2024-03-06T21:57:14;6.30;99.90
38866;DHT22;62686;48.984;8.394;2024-03-06T21:59:42;6.30;99.90
38866;DHT22;62686;48.984;8.394;2024-03-06T22:02:11;6.30;99.90
38866;DHT22;62686;48.984;8.394;2024-03-06T22:04:40;6.40;99.90
38866;DHT22;62686;48.984;8.394;2024-03-06T22:07:09;6.40;99.90
38866;DHT22;62686;48.984;8.394;2024-03-06T22:09:37;6.40;99.90
38866;DHT22;62686;48.984;8.394;2024-03-06T22:12:06;6.40;99.90
38866;DHT22;62686;48.984;8.394;2024-03-06T22:14:40;6.40;99.90
38866;DHT22;62686;48.984;8.394;2024-03-06T22:17:10;6.40;99.90
38866;DHT22;62686;48.984;8.394;2024-03-06T22:19:39;6.40;99.90
38866;DHT22;62686;48.984;8.394;2024-03-06T22:22:07;6.40;99.90
38866;DHT22;62686;48.984;8.394;2024-03-06T22:24:36;6.40;99.90
38866;DHT22;62686;48.984;8.394;2024-03-06T22:27:04;6.50;99.90
38866;DHT22;62686;48.984;8.394;2024-03-06T22:29:33;6.50;99.90
38866;DHT22;62686;48.984;8.394;2024-03-06T22:32:03;6.50;99.90
38866;DHT22;62686;48.984;8.394;2024-03-06T22:34:31;6.50;99.90
38866;DHT22;62686;48.984;8.394;2024-03-06T22:37:01;6.60;99.90
38866;DHT22;62686;48.984;8.394;2024-03-06T22:39:29;6.60;99.90
38866;DHT22;62686;48.984;8.394;2024-03-06T22:41:58;6.50;99.90
38866;DHT22;62686;48.984;8.394;2024-03-06T22:44:26;6.50;99.90
38866;DHT22;62686;48.984;8.394;2024-03-06T22:46:55;6.40;99.90
38866;DHT22;62686;48.984;8.394;2024-03-06T22:49:25;6.40;99.90
38866;DHT22;62686;48.984;8.394;2024-03-06T22:51:53;6.40;99.90
38866;DHT22;62686;48.984;8.394;2024-03-06T22:54:22;6.40;99.90
38866;DHT22;62686;48.984;8.394;2024-03-06T22:56:50;6.40;99.90
38866;DHT22;62686;48.984;8.394;2024-03-06T22:59:18;6.40;99.90
38866;DHT22;62686;48.984;8.394;2024-03-06T23:01:48;6.40;99.90
38866;DHT22;62686;48.984;8.394;2024-03-06T23:04:16;6.40;99.90
38866;DHT22;62686;48.984;8.394;2024-03-06T23:06:47;6.40;99.90
38866;DHT22;62686;48.984;8.394;2024-03-06T23:09:15;6.30;99.90
38866;DHT22;62686;48.984;8.394;2024-03-06T23:11:44;6.30;99.90
38866;DHT22;62686;48.984;8.394;2024-03-06T23:14:12;6.30;99.90
38866;DHT22;62686;48.984;8.394;2024-03-06T23:16:41;6.30;99.90
38866;DHT22;62686;48.984;8.394;2024-03-06T23:19:10;6.30;99.90
38866;DHT22;62686;48.984;8.394;2024-03-06T23:21:38;6.30;99.90
38866;DHT22;62686;48.984;8.394;2024-03-06T23:24:08;6.30;99.90
38866;DHT22;62686;48.984;8.394;2024-03-06T23:26:37;6.30;99.90
38866;DHT22;62686;48.984;8.394;2024-03-06T23:29:06;6.30;99.90
38866;DHT22;62686;48.984;8.394;2024-03-06T23:31:35;6.30;99.90
38866;DHT22;62686;48.984;8.394;2024-03-06T23:34:03;6.30;99.90
38866;DHT22;62686;48.984;8.394;2024-03-06T23:36:31;6.30;99.90
38866;DHT22;62686;48.984;8.394;2024-03-06T23:39:00;6.20;99.90
38866;DHT22;62686;48.984;8.394;2024-03-06T23:41:32;6.20;99.90
38866;DHT22;62686;48.984;8.394;2024-03-06T23:44:00;6.20;99.90
38866;DHT22;62686;48.984;8.394;2024-03-06T23:46:28;6.20;99.90
38866;DHT22;62686;48.984;8.394;2024-03-06T23:48:58;6.20;99.90
38866;DHT22;62686;48.984;8.394;2024-03-06T23:51:27;6.20;99.90
38866;DHT22;62686;48.984;8.394;2024-03-06T23:53:55;6.10;99.90
38866;DHT22;62686;48.984;8.394;2024-03-06T23:56:23;6.10;99.90
38866;DHT22;62686;48.984;8.394;2024-03-06T23:58:54;6.10;99.90
